createdAt,value
2023-03-13T00:00:32.483Z,1000.46
2023-03-13T00:01:32.649Z,1000.48
2023-03-13T00:02:32.869Z,1000.49
2023-03-13T00:03:32.958Z,1000.44
2023-03-13T00:04:33.213Z,1000.50
2023-03-13T00:05:33.250Z,1000.49
2023-03-13T00:06:33.424Z,1000.51
2023-03-13T00:07:33.606Z,1000.48
2023-03-13T00:08:33.836Z,1000.48
2023-03-13T00:09:33.987Z,1000.50
2023-03-13T00:10:34.191Z,1000.50
2023-03-13T00:11:34.360Z,1000.48
2023-03-13T00:12:34.360Z,1000.49
2023-03-13T00:13:34.577Z,1000.47
2023-03-13T00:14:34.623Z,1000.47
2023-03-13T00:15:34.805Z,1000.43
2023-03-13T00:16:35.023Z,1000.41
2023-03-13T00:17:35.085Z,1000.42
2023-03-13T00:18:35.303Z,1000.38
2023-03-13T00:19:35.362Z,1000.39
2023-03-13T00:20:35.551Z,1000.32
2023-03-13T00:21:35.722Z,1000.34
2023-03-13T00:22:35.912Z,1000.34
2023-03-13T00:23:36.114Z,1000.32
2023-03-13T00:24:36.292Z,1000.33
2023-03-13T00:25:36.471Z,1000.30
2023-03-13T00:26:36.658Z,1000.28
2023-03-13T00:27:36.854Z,1000.37
2023-03-13T00:28:37.087Z,1000.36
2023-03-13T00:29:37.125Z,1000.34
2023-03-13T00:30:37.306Z,1000.29
2023-03-13T00:31:37.487Z,1000.28
2023-03-13T00:32:37.655Z,1000.26
2023-03-13T00:33:37.752Z,1000.22
2023-03-13T00:34:37.924Z,1000.27
2023-03-13T00:35:38.182Z,1000.31
2023-03-13T00:36:38.230Z,1000.26
2023-03-13T00:37:38.426Z,1000.23
2023-03-13T00:38:38.600Z,1000.25
2023-03-13T00:39:38.762Z,1000.27
2023-03-13T00:40:38.939Z,1000.21
2023-03-13T00:41:39.119Z,1000.22
2023-03-13T00:42:39.282Z,1000.24
2023-03-13T00:43:39.461Z,1000.21
2023-03-13T00:44:39.651Z,1000.18
2023-03-13T00:45:39.809Z,1000.13
2023-03-13T00:46:39.981Z,1000.21
2023-03-13T00:47:40.143Z,1000.19
2023-03-13T00:48:40.332Z,1000.16
2023-03-13T00:49:40.502Z,1000.12
2023-03-13T00:50:40.661Z,1000.13
2023-03-13T00:51:40.840Z,1000.10
2023-03-13T00:52:41.029Z,1000.06
2023-03-13T00:53:41.215Z,1000.05
2023-03-13T00:54:41.401Z,1000.06
2023-03-13T00:55:41.577Z,1000.07
2023-03-13T00:56:41.748Z,1000.01
2023-03-13T00:57:41.918Z,1000.03
2023-03-13T00:58:42.116Z,1000.03
2023-03-13T00:59:42.173Z,1000.06
2023-03-13T01:00:42.362Z,1000.03
2023-03-13T01:01:42.543Z,1000.01
2023-03-13T01:02:42.872Z,1000.01
2023-03-13T01:03:42.874Z,999.98
2023-03-13T01:04:43.051Z,1000.01
2023-03-13T01:05:43.218Z,999.96
2023-03-13T01:06:43.443Z,999.94
2023-03-13T01:07:43.580Z,999.96
2023-03-13T01:08:43.774Z,999.94
2023-03-13T01:09:43.961Z,999.91
2023-03-13T01:10:44.119Z,999.88
2023-03-13T01:11:44.295Z,999.83
2023-03-13T01:12:44.458Z,999.80
2023-03-13T01:13:44.644Z,999.87
2023-03-13T01:14:44.818Z,999.77
2023-03-13T01:15:45.000Z,999.85
2023-03-13T01:16:45.147Z,999.92
2023-03-13T01:17:45.340Z,999.85
2023-03-13T01:18:45.522Z,999.85
2023-03-13T01:19:45.567Z,999.88
2023-03-13T01:20:45.737Z,999.89
2023-03-13T01:21:45.881Z,999.89
2023-03-13T01:22:46.059Z,999.80
2023-03-13T01:23:46.238Z,999.83
2023-03-13T01:24:46.387Z,999.84
2023-03-13T01:25:46.551Z,999.87
2023-03-13T01:26:46.709Z,999.92
2023-03-13T01:27:46.870Z,999.85
2023-03-13T01:28:47.060Z,999.89
2023-03-13T01:29:47.234Z,999.90
2023-03-13T01:30:47.410Z,999.91
2023-03-13T01:31:47.544Z,999.84
2023-03-13T01:32:47.724Z,999.89
2023-03-13T01:33:47.832Z,999.89
2023-03-13T01:34:47.985Z,999.93
2023-03-13T01:35:48.188Z,999.87
2023-03-13T01:36:48.335Z,999.87
2023-03-13T01:37:48.475Z,999.83
2023-03-13T01:38:48.664Z,999.82
2023-03-13T01:39:48.822Z,999.87
2023-03-13T01:40:48.987Z,999.81
2023-03-13T01:41:49.134Z,999.77
2023-03-13T01:42:49.310Z,999.76
2023-03-13T01:43:49.460Z,999.79
2023-03-13T01:44:49.619Z,999.80
2023-03-13T01:45:49.764Z,999.80
2023-03-13T01:46:49.962Z,999.79
2023-03-13T01:47:50.094Z,999.79
2023-03-13T01:48:50.275Z,999.81
2023-03-13T01:49:50.434Z,999.71
2023-03-13T01:50:50.584Z,999.69
2023-03-13T01:51:50.760Z,999.70
2023-03-13T01:52:50.932Z,999.71
2023-03-13T01:53:51.112Z,999.67
2023-03-13T01:54:51.280Z,999.67
2023-03-13T01:55:51.439Z,999.64
2023-03-13T01:56:51.592Z,999.54
2023-03-13T01:57:51.760Z,999.59
2023-03-13T01:58:51.931Z,999.52
2023-03-13T01:59:52.092Z,999.51
2023-03-13T02:00:52.242Z,999.52
2023-03-13T02:01:52.490Z,999.50
2023-03-13T02:02:52.615Z,999.48
2023-03-13T02:03:52.713Z,999.52
2023-03-13T02:04:52.878Z,999.45
2023-03-13T02:05:53.033Z,999.47
2023-03-13T02:06:53.178Z,999.45
2023-03-13T02:07:53.347Z,999.40
2023-03-13T02:08:53.527Z,999.39
2023-03-13T02:09:53.697Z,999.37
2023-03-13T02:10:53.825Z,999.33
2023-03-13T02:11:53.993Z,999.36
2023-03-13T02:12:54.169Z,999.35
2023-03-13T02:13:54.351Z,999.37
2023-03-13T02:14:54.526Z,999.34
2023-03-13T02:15:54.720Z,999.39
2023-03-13T02:16:54.783Z,999.36
2023-03-13T02:17:54.936Z,999.22
2023-03-13T02:18:55.106Z,999.29
2023-03-13T02:19:55.276Z,999.25
2023-03-13T02:20:55.425Z,999.22
2023-03-13T02:21:55.586Z,999.23
2023-03-13T02:22:55.740Z,999.21
2023-03-13T02:23:55.912Z,999.26
2023-03-13T02:24:56.062Z,999.28
2023-03-13T02:25:56.215Z,999.18
2023-03-13T02:26:56.370Z,999.17
2023-03-13T02:27:56.519Z,999.22
2023-03-13T02:28:56.689Z,999.21
2023-03-13T02:29:56.849Z,999.19
2023-03-13T02:30:57.073Z,999.14
2023-03-13T02:31:57.109Z,999.12
2023-03-13T02:32:57.333Z,999.10
2023-03-13T02:33:57.399Z,999.11
2023-03-13T02:34:57.558Z,999.13
2023-03-13T02:35:57.765Z,999.10
2023-03-13T02:36:57.915Z,999.10
2023-03-13T02:37:58.053Z,999.06
2023-03-13T02:38:58.221Z,999.04
2023-03-13T02:39:58.397Z,999.02
2023-03-13T02:40:58.545Z,999.03
2023-03-13T02:41:58.700Z,999.04
2023-03-13T02:42:58.861Z,999.03
2023-03-13T02:43:59.023Z,999.05
2023-03-13T02:44:59.181Z,999.03
2023-03-13T02:45:59.328Z,998.98
2023-03-13T02:46:59.660Z,999.00
2023-03-13T02:47:59.599Z,998.95
2023-03-13T02:48:59.757Z,998.92
2023-03-13T02:49:59.918Z,998.89
2023-03-13T02:51:00.078Z,998.92
2023-03-13T02:52:00.219Z,998.92
2023-03-13T02:53:00.373Z,998.91
2023-03-13T02:54:00.545Z,998.87
2023-03-13T02:55:00.703Z,998.87
2023-03-13T02:56:00.874Z,998.88
2023-03-13T02:57:01.035Z,998.83
2023-03-13T02:58:01.194Z,998.77
2023-03-13T02:59:01.357Z,998.82
2023-03-13T03:00:01.570Z,998.74
2023-03-13T03:01:01.739Z,998.69
2023-03-13T03:02:01.869Z,998.64
2023-03-13T03:03:02.011Z,998.68
2023-03-13T03:04:02.201Z,998.72
2023-03-13T03:05:02.245Z,998.60
2023-03-13T03:06:02.406Z,998.55
2023-03-13T03:07:02.547Z,998.60
2023-03-13T03:08:02.707Z,998.58
2023-03-13T03:09:02.851Z,998.58
2023-03-13T03:10:03.016Z,998.54
2023-03-13T03:11:03.149Z,998.51
2023-03-13T03:12:03.319Z,998.51
2023-03-13T03:13:03.435Z,998.53
2023-03-13T03:14:03.585Z,998.53
2023-03-13T03:15:03.722Z,998.53
2023-03-13T03:16:03.915Z,998.48
2023-03-13T03:17:04.057Z,998.49
2023-03-13T03:18:04.262Z,998.46
2023-03-13T03:19:04.395Z,998.50
2023-03-13T03:20:04.558Z,998.47
2023-03-13T03:21:04.697Z,998.47
2023-03-13T03:22:04.852Z,998.44
2023-03-13T03:23:04.996Z,998.45
2023-03-13T03:24:05.151Z,998.45
2023-03-13T03:25:05.297Z,998.44
2023-03-13T03:26:05.479Z,998.49
2023-03-13T03:27:05.594Z,998.45
2023-03-13T03:28:05.764Z,998.45
2023-03-13T03:29:05.922Z,998.49
2023-03-13T03:30:06.090Z,998.41
2023-03-13T03:31:06.236Z,998.47
2023-03-13T03:32:06.451Z,998.39
2023-03-13T03:33:06.507Z,998.35
2023-03-13T03:34:06.656Z,998.43
2023-03-13T03:35:06.801Z,998.39
2023-03-13T03:36:06.997Z,998.39
2023-03-13T03:37:07.015Z,998.33
2023-03-13T03:38:15.181Z,998.35
2023-03-13T03:39:08.037Z,998.35
2023-03-13T03:40:07.401Z,998.35
2023-03-13T03:41:07.550Z,998.35
2023-03-13T03:42:07.699Z,998.30
2023-03-13T03:43:07.849Z,998.26
2023-03-13T03:44:08.014Z,998.28
2023-03-13T03:45:08.158Z,998.34
2023-03-13T03:46:08.368Z,998.21
2023-03-13T03:47:08.561Z,998.22
2023-03-13T03:48:08.605Z,998.18
2023-03-13T03:49:08.757Z,998.16
2023-03-13T03:50:08.904Z,998.15
2023-03-13T03:51:09.062Z,998.19
2023-03-13T03:52:09.210Z,998.17
2023-03-13T03:53:09.352Z,998.22
2023-03-13T03:54:09.521Z,998.15
2023-03-13T03:55:09.672Z,998.15
2023-03-13T03:56:09.827Z,998.07
2023-03-13T03:57:09.973Z,998.11
2023-03-13T03:58:10.125Z,998.05
2023-03-13T03:59:10.281Z,998.05
2023-03-13T04:00:10.421Z,998.01
2023-03-13T04:01:10.553Z,997.99
2023-03-13T04:02:10.841Z,997.99
2023-03-13T04:03:10.913Z,997.94
2023-03-13T04:04:11.085Z,997.92
2023-03-13T04:05:11.227Z,997.88
2023-03-13T04:06:11.387Z,997.91
2023-03-13T04:07:11.522Z,997.83
2023-03-13T04:08:11.669Z,997.86
2023-03-13T04:09:11.828Z,997.88
2023-03-13T04:10:11.973Z,997.91
2023-03-13T04:11:12.134Z,997.85
2023-03-13T04:12:12.288Z,997.82
2023-03-13T04:13:12.423Z,997.85
2023-03-13T04:14:12.578Z,997.82
2023-03-13T04:15:12.714Z,997.84
2023-03-13T04:16:12.938Z,997.81
2023-03-13T04:17:12.960Z,997.81
2023-03-13T04:18:13.111Z,997.80
2023-03-13T04:19:13.266Z,997.75
2023-03-13T04:20:13.413Z,997.77
2023-03-13T04:21:13.563Z,997.81
2023-03-13T04:22:13.747Z,997.75
2023-03-13T04:23:13.860Z,997.71
2023-03-13T04:24:14.036Z,997.70
2023-03-13T04:25:14.168Z,997.65
2023-03-13T04:26:14.321Z,997.65
2023-03-13T04:27:14.454Z,997.60
2023-03-13T04:28:14.621Z,997.61
2023-03-13T04:29:14.770Z,997.56
2023-03-13T04:30:17.589Z,997.56
2023-03-13T04:31:15.038Z,997.57
2023-03-13T04:32:15.135Z,997.54
2023-03-13T04:33:15.242Z,997.52
2023-03-13T04:34:15.369Z,997.52
2023-03-13T04:35:15.579Z,997.47
2023-03-13T04:36:15.645Z,997.45
2023-03-13T04:37:15.809Z,997.42
2023-03-13T04:38:15.967Z,997.43
2023-03-13T04:39:16.124Z,997.51
2023-03-13T04:40:16.292Z,997.40
2023-03-13T04:41:16.426Z,997.38
2023-03-13T04:42:16.587Z,997.39
2023-03-13T04:43:16.743Z,997.40
2023-03-13T04:44:16.918Z,997.39
2023-03-13T04:45:17.073Z,997.34
2023-03-13T04:46:17.254Z,997.31
2023-03-13T04:47:17.316Z,997.34
2023-03-13T04:48:17.473Z,997.30
2023-03-13T04:49:17.643Z,997.26
2023-03-13T04:50:17.795Z,997.27
2023-03-13T04:51:17.939Z,997.22
2023-03-13T04:52:18.142Z,997.27
2023-03-13T04:53:18.256Z,997.20
2023-03-13T04:54:18.422Z,997.25
2023-03-13T04:55:18.575Z,997.21
2023-03-13T04:56:19.357Z,997.15
2023-03-13T04:57:18.948Z,997.18
2023-03-13T04:58:19.126Z,997.17
2023-03-13T04:59:19.291Z,997.15
2023-03-13T05:00:19.449Z,997.13
2023-03-13T05:01:19.620Z,997.08
2023-03-13T05:02:19.782Z,997.08
2023-03-13T05:03:19.955Z,997.03
2023-03-13T05:04:20.146Z,997.05
2023-03-13T05:05:20.399Z,996.99
2023-03-13T05:06:20.502Z,996.94
2023-03-13T05:07:20.662Z,996.91
2023-03-13T05:08:20.840Z,996.83
2023-03-13T05:09:21.035Z,996.87
2023-03-13T05:10:21.230Z,996.83
2023-03-13T05:11:21.369Z,996.83
2023-03-13T05:12:21.563Z,996.80
2023-03-13T05:13:21.725Z,996.72
2023-03-13T05:14:21.930Z,996.73
2023-03-13T05:15:22.103Z,996.68
2023-03-13T05:16:22.371Z,996.68
2023-03-13T05:17:22.432Z,996.65
2023-03-13T05:18:22.570Z,996.59
2023-03-13T05:19:22.725Z,996.68
2023-03-13T05:20:22.909Z,996.65
2023-03-13T05:21:23.085Z,996.66
2023-03-13T05:22:23.268Z,996.59
2023-03-13T05:23:23.440Z,996.67
2023-03-13T05:24:23.594Z,996.66
2023-03-13T05:25:23.777Z,996.59
2023-03-13T05:26:23.942Z,996.69
2023-03-13T05:27:24.102Z,996.63
2023-03-13T05:28:24.283Z,996.58
2023-03-13T05:29:24.449Z,996.60
2023-03-13T05:30:24.617Z,996.55
2023-03-13T05:31:24.830Z,996.54
2023-03-13T05:32:25.081Z,996.46
2023-03-13T05:33:25.169Z,996.49
2023-03-13T05:34:25.378Z,996.47
2023-03-13T05:35:25.487Z,996.42
2023-03-13T05:36:25.670Z,996.45
2023-03-13T05:37:25.775Z,996.36
2023-03-13T05:38:25.874Z,996.32
2023-03-13T05:39:26.056Z,996.27
2023-03-13T05:40:26.233Z,996.32
2023-03-13T05:41:26.409Z,996.36
2023-03-13T05:42:26.581Z,996.28
2023-03-13T05:43:26.756Z,996.21
2023-03-13T05:44:26.989Z,996.22
2023-03-13T05:45:27.056Z,996.21
2023-03-13T05:46:27.336Z,996.16
2023-03-13T05:47:27.403Z,996.17
2023-03-13T05:48:27.585Z,996.14
2023-03-13T05:49:27.762Z,996.09
2023-03-13T05:50:27.965Z,996.09
2023-03-13T05:51:28.123Z,996.05
2023-03-13T05:52:28.308Z,996.05
2023-03-13T05:53:28.486Z,995.99
2023-03-13T05:54:28.668Z,995.99
2023-03-13T05:55:28.881Z,995.90
2023-03-13T05:56:29.041Z,995.93
2023-03-13T05:57:29.218Z,995.94
2023-03-13T05:58:29.385Z,995.90
2023-03-13T05:59:29.584Z,995.86
2023-03-13T06:00:29.654Z,995.81
2023-03-13T06:01:29.811Z,995.77
2023-03-13T06:02:29.997Z,995.77
2023-03-13T06:03:30.231Z,995.76
2023-03-13T06:04:30.401Z,995.78
2023-03-13T06:05:30.307Z,995.81
2023-03-13T06:06:30.505Z,995.81
2023-03-13T06:07:30.653Z,995.79
2023-03-13T06:08:30.822Z,995.76
2023-03-13T06:09:31.018Z,995.76
2023-03-13T06:10:31.191Z,995.73
2023-03-13T06:11:31.370Z,995.73
2023-03-13T06:12:31.537Z,995.77
2023-03-13T06:13:31.721Z,995.75
2023-03-13T06:14:31.899Z,995.76
2023-03-13T06:15:32.074Z,995.70
2023-03-13T06:16:32.273Z,995.67
2023-03-13T06:17:32.443Z,995.73
2023-03-13T06:18:32.649Z,995.73
2023-03-13T06:19:32.839Z,995.65
2023-03-13T06:20:33.025Z,995.58
2023-03-13T06:21:33.222Z,995.54
2023-03-13T06:22:33.297Z,995.59
2023-03-13T06:23:33.483Z,995.52
2023-03-13T06:24:33.666Z,995.57
2023-03-13T06:25:33.854Z,995.48
2023-03-13T06:26:34.029Z,995.41
2023-03-13T06:27:34.220Z,995.43
2023-03-13T06:28:34.388Z,995.46
2023-03-13T06:29:34.598Z,995.44
2023-03-13T06:30:34.648Z,995.43
2023-03-13T06:31:35.055Z,995.32
2023-03-13T06:32:35.093Z,995.35
2023-03-13T06:33:35.103Z,995.29
2023-03-13T06:34:35.287Z,995.23
2023-03-13T06:35:43.523Z,995.21
2023-03-13T06:36:36.658Z,995.17
2023-03-13T06:37:35.701Z,995.11
2023-03-13T06:38:35.904Z,995.14
2023-03-13T06:39:36.112Z,995.09
2023-03-13T06:40:36.181Z,995.12
2023-03-13T06:41:36.382Z,995.11
2023-03-13T06:42:36.562Z,995.12
2023-03-13T06:43:36.770Z,995.06
2023-03-13T06:44:36.847Z,995.01
2023-03-13T06:45:37.051Z,995.04
2023-03-13T06:46:37.213Z,994.96
2023-03-13T06:47:37.307Z,994.89
2023-03-13T06:48:37.487Z,994.88
2023-03-13T06:49:37.684Z,994.84
2023-03-13T06:50:37.864Z,994.83
2023-03-13T06:51:38.029Z,994.81
2023-03-13T06:52:43.957Z,994.73
2023-03-13T06:53:39.348Z,994.74
2023-03-13T06:54:38.529Z,994.73
2023-03-13T06:55:38.727Z,994.68
2023-03-13T06:56:38.900Z,994.69
2023-03-13T06:57:39.088Z,994.62
2023-03-13T06:58:39.261Z,994.70
2023-03-13T06:59:39.443Z,994.69
2023-03-13T07:00:39.706Z,994.65
2023-03-13T07:01:39.759Z,994.64
2023-03-13T07:02:39.954Z,994.61
2023-03-13T07:03:40.185Z,994.63
2023-03-13T07:04:40.242Z,994.61
2023-03-13T07:05:40.418Z,994.56
2023-03-13T07:06:40.603Z,994.62
2023-03-13T07:07:40.798Z,994.58
2023-03-13T07:08:40.968Z,994.64
2023-03-13T07:09:41.155Z,994.62
2023-03-13T07:10:41.337Z,994.55
2023-03-13T07:11:41.520Z,994.62
2023-03-13T07:12:41.708Z,994.60
2023-03-13T07:13:41.905Z,994.70
2023-03-13T07:14:42.082Z,994.67
2023-03-13T07:15:42.274Z,994.58
2023-03-13T07:16:42.527Z,994.55
2023-03-13T07:17:42.627Z,994.63
2023-03-13T07:18:42.766Z,994.53
2023-03-13T07:19:42.995Z,994.53
2023-03-13T07:20:43.175Z,994.54
2023-03-13T07:21:43.242Z,994.64
2023-03-13T07:22:43.395Z,994.61
2023-03-13T07:23:43.570Z,994.54
2023-03-13T07:24:43.753Z,994.45
2023-03-13T07:25:43.927Z,994.39
2023-03-13T07:26:57.700Z,994.40
2023-03-13T07:27:45.206Z,994.38
2023-03-13T07:28:44.375Z,994.39
2023-03-13T07:29:44.574Z,994.43
2023-03-13T07:30:44.705Z,994.50
2023-03-13T07:31:44.912Z,994.43
2023-03-13T07:32:45.013Z,994.39
2023-03-13T07:33:45.088Z,994.38
2023-03-13T07:34:45.282Z,994.37
2023-03-13T07:35:45.423Z,994.51
2023-03-13T07:36:45.576Z,994.34
2023-03-13T07:37:45.818Z,994.33
2023-03-13T07:38:45.873Z,994.24
2023-03-13T07:39:46.083Z,994.33
2023-03-13T07:40:46.190Z,994.30
2023-03-13T07:41:46.358Z,994.23
2023-03-13T07:42:46.491Z,994.22
2023-03-13T07:43:46.641Z,994.22
2023-03-13T07:44:46.814Z,994.23
2023-03-13T07:45:47.032Z,994.17
2023-03-13T07:46:47.150Z,994.21
2023-03-13T07:47:47.308Z,994.16
2023-03-13T07:48:47.461Z,994.16
2023-03-13T07:49:47.632Z,994.14
2023-03-13T07:50:47.775Z,994.03
2023-03-13T07:51:47.933Z,993.98
2023-03-13T07:52:48.102Z,994.05
2023-03-13T07:53:48.239Z,994.03
2023-03-13T07:54:48.398Z,994.04
2023-03-13T07:55:48.540Z,993.97
2023-03-13T07:56:48.680Z,993.93
2023-03-13T07:57:48.829Z,993.90
2023-03-13T07:58:49.017Z,993.92
2023-03-13T07:59:49.167Z,993.94
2023-03-13T08:00:49.308Z,993.97
2023-03-13T08:01:49.525Z,993.96
2023-03-13T08:02:49.521Z,993.86
2023-03-13T08:03:49.729Z,993.84
2023-03-13T08:04:49.805Z,993.90
2023-03-13T08:05:49.980Z,993.96
2023-03-13T08:06:50.118Z,993.89
2023-03-13T08:07:50.254Z,993.94
2023-03-13T08:08:50.401Z,993.80
2023-03-13T08:09:50.557Z,993.85
2023-03-13T08:10:50.693Z,993.77
2023-03-13T08:11:50.836Z,993.80
2023-03-13T08:12:50.975Z,993.89
2023-03-13T08:13:51.104Z,993.86
2023-03-13T08:14:51.271Z,993.78
2023-03-13T08:15:51.426Z,993.72
2023-03-13T08:16:51.599Z,993.64
2023-03-13T08:17:51.658Z,993.66
2023-03-13T08:18:51.795Z,993.64
2023-03-13T08:19:51.969Z,993.71
2023-03-13T08:20:52.089Z,993.70
2023-03-13T08:21:52.239Z,993.65
2023-03-13T08:22:52.381Z,993.69
2023-03-13T08:23:52.571Z,993.78
2023-03-13T08:24:52.806Z,993.73
2023-03-13T08:25:52.848Z,993.65
2023-03-13T08:26:53.006Z,993.56
2023-03-13T08:27:53.143Z,993.60
2023-03-13T08:28:53.279Z,993.64
2023-03-13T08:29:53.469Z,993.47
2023-03-13T08:30:53.648Z,993.49
2023-03-13T08:31:53.776Z,993.46
2023-03-13T08:32:54.006Z,993.53
2023-03-13T08:33:54.014Z,993.48
2023-03-13T08:34:54.179Z,993.48
2023-03-13T08:35:54.391Z,993.50
2023-03-13T08:36:54.457Z,993.49
2023-03-13T08:37:54.602Z,993.41
2023-03-13T08:38:54.733Z,993.40
2023-03-13T08:39:54.908Z,993.43
2023-03-13T08:40:55.051Z,993.39
2023-03-13T08:41:55.200Z,993.39
2023-03-13T08:42:55.330Z,993.35
2023-03-13T08:43:55.478Z,993.44
2023-03-13T08:44:55.659Z,993.32
2023-03-13T08:45:55.896Z,993.49
2023-03-13T08:46:55.928Z,993.41
2023-03-13T08:47:56.077Z,993.38
2023-03-13T08:48:56.241Z,993.38
2023-03-13T08:49:56.403Z,993.34
2023-03-13T08:50:56.541Z,993.27
2023-03-13T08:51:56.688Z,993.29
2023-03-13T08:52:56.822Z,993.21
2023-03-13T08:53:56.983Z,993.39
2023-03-13T08:54:57.130Z,993.24
2023-03-13T08:55:57.256Z,993.16
2023-03-13T08:56:57.389Z,993.23
2023-03-13T08:57:57.560Z,993.23
2023-03-13T08:58:57.715Z,993.15
2023-03-13T08:59:57.911Z,993.11
2023-03-13T09:00:57.942Z,993.21
2023-03-13T09:01:58.076Z,993.09
2023-03-13T09:02:58.320Z,993.20
2023-03-13T09:03:59.539Z,993.11
2023-03-13T09:04:58.495Z,993.06
2023-03-13T09:05:58.654Z,993.10
2023-03-13T09:06:58.806Z,993.06
2023-03-13T09:07:59.492Z,993.04
2023-03-13T09:08:59.057Z,992.90
2023-03-13T09:09:59.234Z,992.93
2023-03-13T09:10:59.385Z,992.97
2023-03-13T09:11:59.533Z,992.84
2023-03-13T09:12:59.683Z,992.86
2023-03-13T09:13:59.828Z,992.79
2023-03-13T09:14:59.980Z,992.80
2023-03-13T09:16:00.204Z,992.87
2023-03-13T09:17:00.320Z,992.79
2023-03-13T09:18:00.390Z,992.85
2023-03-13T09:19:00.559Z,992.83
2023-03-13T09:20:01.420Z,992.89
2023-03-13T09:21:00.817Z,992.98
2023-03-13T09:22:00.983Z,993.16
2023-03-13T09:23:01.118Z,992.90
2023-03-13T09:24:01.298Z,993.00
2023-03-13T09:25:01.437Z,992.92
2023-03-13T09:26:01.587Z,992.93
2023-03-13T09:27:01.869Z,992.88
2023-03-13T09:28:01.910Z,992.96
2023-03-13T09:29:02.052Z,992.90
2023-03-13T09:30:02.217Z,992.87
2023-03-13T09:31:02.392Z,992.93
2023-03-13T09:32:02.549Z,992.89
2023-03-13T09:33:02.915Z,992.89
2023-03-13T09:34:02.841Z,993.01
2023-03-13T09:35:02.993Z,992.98
2023-03-13T09:36:03.168Z,993.01
2023-03-13T09:37:03.221Z,993.08
2023-03-13T09:38:03.378Z,993.08
2023-03-13T09:39:10.523Z,992.96
2023-03-13T09:40:03.647Z,992.98
2023-03-13T09:41:06.473Z,992.96
2023-03-13T09:42:06.251Z,992.91
2023-03-13T09:43:04.133Z,992.88
2023-03-13T09:44:04.283Z,992.91
2023-03-13T09:45:04.451Z,993.12
2023-03-13T09:46:04.629Z,992.78
2023-03-13T09:47:04.797Z,992.76
2023-03-13T09:48:04.928Z,992.72
2023-03-13T09:49:05.079Z,992.70
2023-03-13T09:50:05.250Z,992.70
2023-03-13T09:51:05.385Z,992.68
2023-03-13T09:52:05.530Z,992.70
2023-03-13T09:53:05.685Z,992.77
2023-03-13T09:54:05.854Z,992.70
2023-03-13T09:55:05.890Z,992.72
2023-03-13T09:56:06.157Z,992.61
2023-03-13T09:57:06.206Z,992.72
2023-03-13T09:58:06.310Z,992.73
2023-03-13T09:59:06.460Z,992.63
2023-03-13T10:00:06.616Z,992.61
2023-03-13T10:01:06.747Z,992.75
2023-03-13T10:02:06.931Z,992.69
2023-03-13T10:03:06.978Z,992.64
2023-03-13T10:04:07.136Z,992.66
2023-03-13T10:05:07.274Z,992.67
2023-03-13T10:06:07.394Z,992.64
2023-03-13T10:07:07.519Z,992.72
2023-03-13T10:08:07.682Z,992.75
2023-03-13T10:09:07.813Z,992.76
2023-03-13T10:10:08.129Z,992.70
2023-03-13T10:11:08.141Z,992.73
2023-03-13T10:12:08.302Z,992.70
2023-03-13T10:13:08.441Z,992.68
2023-03-13T10:14:08.580Z,992.61
2023-03-13T10:15:08.823Z,992.61
2023-03-13T10:16:08.946Z,992.64
2023-03-13T10:17:09.040Z,992.64
2023-03-13T10:18:09.070Z,992.81
2023-03-13T10:19:09.204Z,992.84
2023-03-13T10:20:09.370Z,992.64
2023-03-13T10:21:09.498Z,992.68
2023-03-13T10:22:09.648Z,992.61
2023-03-13T10:23:09.814Z,992.66
2023-03-13T10:24:09.976Z,992.54
2023-03-13T10:25:10.209Z,992.55
2023-03-13T10:26:10.291Z,992.52
2023-03-13T10:27:10.488Z,992.64
2023-03-13T10:28:10.685Z,992.49
2023-03-13T10:29:10.696Z,992.49
2023-03-13T10:30:10.891Z,992.52
2023-03-13T10:31:11.018Z,992.47
2023-03-13T10:32:11.071Z,992.49
2023-03-13T10:33:11.207Z,992.44
2023-03-13T10:34:12.342Z,992.50
2023-03-13T10:35:11.502Z,992.52
2023-03-13T10:36:11.686Z,992.49
2023-03-13T10:37:11.723Z,992.76
2023-03-13T10:38:11.836Z,992.46
2023-03-13T10:39:12.514Z,992.42
2023-03-13T10:40:12.085Z,992.43
2023-03-13T10:41:12.222Z,992.43
2023-03-13T10:42:12.336Z,992.46
2023-03-13T10:43:12.487Z,992.41
2023-03-13T10:44:12.611Z,992.76
2023-03-13T10:45:12.753Z,992.29
2023-03-13T10:46:12.909Z,992.36
2023-03-13T10:47:13.012Z,992.28
2023-03-13T10:48:13.136Z,992.37
2023-03-13T10:49:13.277Z,992.27
2023-03-13T10:50:13.409Z,992.26
2023-03-13T10:51:13.542Z,992.23
2023-03-13T10:52:13.664Z,992.17
2023-03-13T10:53:13.790Z,992.19
2023-03-13T10:54:13.900Z,992.10
2023-03-13T10:55:14.060Z,992.18
2023-03-13T10:56:14.198Z,992.18
2023-03-13T10:57:14.310Z,992.11
2023-03-13T10:58:14.422Z,992.18
2023-03-13T10:59:14.553Z,992.11
2023-03-13T11:00:14.720Z,992.12
2023-03-13T11:01:14.814Z,992.21
2023-03-13T11:02:14.940Z,992.07
2023-03-13T11:03:15.144Z,991.99
2023-03-13T11:04:15.144Z,992.02
2023-03-13T11:05:15.282Z,992.27
2023-03-13T11:06:15.380Z,992.02
2023-03-13T11:07:15.493Z,992.06
2023-03-13T11:08:15.644Z,991.96
2023-03-13T11:09:15.781Z,991.96
2023-03-13T11:10:15.905Z,991.91
2023-03-13T11:11:16.017Z,991.92
2023-03-13T11:12:16.135Z,991.89
2023-03-13T11:13:19.949Z,991.82
2023-03-13T11:14:17.312Z,991.73
2023-03-13T11:15:16.478Z,991.85
2023-03-13T11:16:16.475Z,991.81
2023-03-13T11:17:19.124Z,991.76
2023-03-13T11:18:16.659Z,991.72
2023-03-13T11:19:16.794Z,991.77
2023-03-13T11:20:16.961Z,991.65
2023-03-13T11:21:18.567Z,991.62
2023-03-13T11:22:17.115Z,991.61
2023-03-13T11:23:17.207Z,991.66
2023-03-13T11:24:17.316Z,991.73
2023-03-13T11:25:17.939Z,991.78
2023-03-13T11:26:17.521Z,991.55
2023-03-13T11:27:17.618Z,991.51
2023-03-13T11:28:17.730Z,991.54
2023-03-13T11:29:17.967Z,991.61
2023-03-13T11:30:17.916Z,991.48
2023-03-13T11:31:17.947Z,991.47
2023-03-13T11:32:18.071Z,991.61
2023-03-13T11:33:18.171Z,991.50
2023-03-13T11:34:18.242Z,991.51
2023-03-13T11:35:18.358Z,991.51
2023-03-13T11:36:18.512Z,991.58
2023-03-13T11:37:18.486Z,991.52
2023-03-13T11:38:18.558Z,991.50
2023-03-13T11:39:18.659Z,991.53
2023-03-13T11:40:18.761Z,991.54
2023-03-13T11:41:18.898Z,991.60
2023-03-13T11:42:18.946Z,991.47
2023-03-13T11:43:25.366Z,991.68
2023-03-13T11:44:20.057Z,991.55
2023-03-13T11:45:19.354Z,991.53
2023-03-13T11:46:19.368Z,991.59
2023-03-13T11:47:19.363Z,991.54
2023-03-13T11:48:19.448Z,991.48
2023-03-13T11:49:19.519Z,991.50
2023-03-13T11:50:19.616Z,991.42
2023-03-13T11:51:20.868Z,991.42
2023-03-13T11:52:19.761Z,991.46
2023-03-13T11:53:19.889Z,991.49
2023-03-13T11:54:19.951Z,991.44
2023-03-13T11:55:19.976Z,991.50
2023-03-13T11:56:20.053Z,991.48
2023-03-13T11:57:20.162Z,991.59
2023-03-13T11:58:20.266Z,991.43
2023-03-13T11:59:20.383Z,991.50
2023-03-13T12:00:20.500Z,991.56
2023-03-13T12:01:20.645Z,991.57
2023-03-13T12:02:20.803Z,991.53
2023-03-13T12:03:20.785Z,991.51
2023-03-13T12:04:20.860Z,991.57
2023-03-13T12:05:21.101Z,991.80
2023-03-13T12:06:27.936Z,991.49
2023-03-13T12:07:22.285Z,991.36
2023-03-13T12:08:21.376Z,991.52
2023-03-13T12:09:21.487Z,991.46
2023-03-13T12:10:21.596Z,991.50
2023-03-13T12:11:21.702Z,991.65
2023-03-13T12:12:21.784Z,991.50
2023-03-13T12:13:21.879Z,991.43
2023-03-13T12:14:21.961Z,991.32
2023-03-13T12:15:22.070Z,991.30
2023-03-13T12:16:22.206Z,991.47
2023-03-13T12:17:22.297Z,991.30
2023-03-13T12:18:22.394Z,991.39
2023-03-13T12:19:22.486Z,991.47
2023-03-13T12:20:22.612Z,991.37
2023-03-13T12:21:22.709Z,991.38
2023-03-13T12:22:22.873Z,991.36
2023-03-13T12:23:22.856Z,991.38
2023-03-13T12:24:22.951Z,991.38
2023-03-13T12:25:23.164Z,991.34
2023-03-13T12:26:23.134Z,991.45
2023-03-13T12:27:23.209Z,991.30
2023-03-13T12:28:24.092Z,991.33